Time;durP1;ratioP1;P1;durP2;ratioP2;P2;SDS_P1;SDS_P2;PMS_P1;PMS_P2;Temp;Humidity;BMP_temperature;BMP_pressure;BME280_temperature;BME280_humidity;BME280_pressure;Samples;Min_cycle;Max_cycle;Signal;HPM_P1;HPM_P2
2022/03/18 00:01:15;;;;;;;37.40;6.90;;;;;;;8.37;61.62;103256.94;4727838;29;119365;-90
2022/03/18 00:03:48;;;;;;;35.70;6.80;;;;;;;8.55;61.80;103301.72;4742049;29;119869;-88
2022/03/18 00:06:16;;;;;;;37.20;6.93;;;;;;;8.67;62.21;103319.81;4739967;29;120450;-89
2022/03/18 00:08:42;;;;;;;24.67;5.85;;;;;;;8.69;61.77;103322.97;4723710;29;119576;-88
2022/03/18 00:11:08;;;;;;;22.98;5.43;;;;;;;8.69;61.79;103333.91;4712729;29;122336;-88
2022/03/18 00:13:37;;;;;;;29.38;5.88;;;;;;;8.67;61.97;103330.75;4725941;29;120855;-87
2022/03/18 00:16:13;;;;;;;;;;;;;;;;;;;;;
2022/03/18 00:18:39;;;;;;;34.38;6.00;;;;;;;8.30;61.87;103296.69;4736578;29;120529;-89
2022/03/18 00:21:08;;;;;;;31.05;6.45;;;;;;;8.49;61.98;103325.06;4719256;29;119750;-88
2022/03/18 00:23:36;;;;;;;32.10;6.15;;;;;;;8.39;61.91;103307.38;4722360;29;121715;-89
2022/03/18 00:26:04;;;;;;;23.98;5.50;;;;;;;8.31;61.60;103301.00;4718813;29;123228;-88
2022/03/18 00:28:39;;;;;;;29.52;5.93;;;;;;;8.12;61.75;103276.50;4716677;29;120017;-89
2022/03/18 00:31:29;;;;;;;26.48;6.60;;;;;;;8.25;61.78;103310.66;4734259;29;121241;-90
2022/03/18 00:33:57;;;;;;;24.77;6.10;;;;;;;8.31;61.42;103313.88;4703675;29;123054;-89
2022/03/18 00:36:25;;;;;;;29.35;5.88;;;;;;;8.56;61.81;103353.31;4714078;29;122451;-90
2022/03/18 00:38:53;;;;;;;27.52;5.88;;;;;;;8.15;61.84;103303.09;4715514;29;122979;-89
2022/03/18 00:41:19;;;;;;;33.60;7.32;;;;;;;8.17;61.23;103291.78;4714300;29;119923;-89
2022/03/18 00:43:50;;;;;;;34.50;7.03;;;;;;;8.11;61.63;103287.81;4729388;29;120155;-89
2022/03/18 00:46:20;;;;;;;39.15;7.10;;;;;;;8.23;61.86;103314.91;4730111;29;123087;-89
2022/03/18 00:54:19;;;;;;;23.42;5.72;;;;;;;7.88;61.64;103266.81;4721754;29;123010;-90
2022/03/18 00:57:02;;;;;;;27.58;5.40;;;;;;;7.87;61.93;103258.97;4724962;29;119635;-89
2022/03/18 00:59:28;;;;;;;27.17;6.53;;;;;;;8.20;62.08;103310.97;4700480;29;122799;-86
2022/03/18 01:01:56;;;;;;;27.48;6.22;;;;;;;8.36;61.53;103338.19;4684205;29;121100;-88
2022/03/18 01:04:25;;;;;;;30.30;6.88;;;;;;;8.06;61.52;103297.13;4712597;29;121716;-89
2022/03/18 01:06:57;;;;;;;30.67;6.75;;;;;;;8.29;61.75;103338.06;4716661;29;119984;-88
2022/03/18 01:09:26;;;;;;;26.63;6.15;;;;;;;7.94;61.83;103287.19;4722024;29;119973;-87
2022/03/18 01:11:53;;;;;;;25.77;6.28;;;;;;;8.39;61.87;103353.06;4729509;29;120419;-88
2022/03/18 01:14:19;;;;;;;30.65;6.75;;;;;;;8.42;61.84;103353.13;4731989;29;123893;-87
2022/03/18 01:16:48;;;;;;;28.20;5.82;;;;;;;8.27;61.52;103345.84;4722925;29;119695;-88
2022/03/18 01:19:13;;;;;;;22.80;5.95;;;;;;;8.25;61.60;103346.19;4719409;29;124232;-90
2022/03/18 01:21:48;;;;;;;21.20;6.28;;;;;;;7.83;61.32;103290.94;4722926;29;120303;-89
2022/03/18 01:24:17;;;;;;;28.55;7.25;;;;;;;7.64;61.62;103269.94;4702972;29;121564;-88
2022/03/18 01:26:42;;;;;;;27.08;6.43;;;;;;;8.16;61.23;103348.44;4718199;29;123353;-89
2022/03/18 01:29:13;;;;;;;24.10;6.78;;;;;;;8.01;61.71;103332.97;4740985;29;121123;-89
2022/03/18 01:31:54;;;;;;;;;;;;;;;;;;;;;
2022/03/18 01:34:22;;;;;;;24.83;5.82;;;;;;;7.91;61.91;103325.41;4723757;29;123716;-88
2022/03/18 01:36:55;;;;;;;15.13;5.03;;;;;;;8.16;62.11;103366.78;4712411;29;119526;-88
2022/03/18 01:39:30;;;;;;;18.77;5.40;;;;;;;8.24;62.25;103371.19;4717778;29;121947;-88
2022/03/18 01:42:16;;;;;;;16.42;5.20;;;;;;;8.26;62.23;103366.94;4719088;29;120135;-88
2022/03/18 01:44:44;;;;;;;21.23;5.30;;;;;;;8.28;62.50;103361.91;4743730;29;122237;-88
2022/03/18 01:47:12;;;;;;;19.83;5.90;;;;;;;8.30;62.45;103364.25;4730796;29;120440;-89
2022/03/18 01:49:41;;;;;;;24.60;6.00;;;;;;;7.93;62.33;103310.22;4721067;29;119840;-88
2022/03/18 01:52:10;;;;;;;23.38;5.65;;;;;;;8.37;62.70;103371.81;4744689;29;121208;-87
2022/03/18 01:54:49;;;;;;;31.65;5.82;;;;;;;8.36;62.91;103364.75;4714058;29;121938;-88
2022/03/18 01:57:21;;;;;;;24.08;5.63;;;;;;;8.45;63.00;103374.25;4708733;29;119637;-88
2022/03/18 01:59:50;;;;;;;26.10;6.07;;;;;;;8.49;62.82;103377.03;4742246;29;119590;-89
2022/03/18 02:02:17;;;;;;;25.80;5.97;;;;;;;8.33;62.76;103347.13;4713897;29;123344;-88
2022/03/18 02:04:44;;;;;;;28.35;5.75;;;;;;;8.54;63.27;103377.53;4698583;29;122095;-88
2022/03/18 02:07:10;;;;;;;25.55;6.20;;;;;;;8.48;63.36;103370.78;4740401;29;123126;-87
2022/03/18 02:09:37;;;;;;;32.75;6.47;;;;;;;8.52;62.87;103373.59;4709994;29;119875;-87
2022/03/18 02:12:03;;;;;;;20.40;5.70;;;;;;;8.60;62.91;103370.56;4698943;29;122241;-87
2022/03/18 02:14:30;;;;;;;30.85;6.65;;;;;;;8.53;63.05;103361.47;4714496;29;123841;-88
2022/03/18 02:16:55;;;;;;;30.30;6.38;;;;;;;8.61;63.05;103377.63;4729398;29;119667;-88
2022/03/18 02:19:21;;;;;;;25.92;6.53;;;;;;;8.42;63.45;103353.13;4729710;29;119541;-88
2022/03/18 02:21:49;;;;;;;23.02;5.15;;;;;;;8.58;62.71;103369.38;4713023;29;123353;-88
2022/03/18 02:24:14;;;;;;;24.17;6.13;;;;;;;8.38;63.26;103341.34;4730005;29;119507;-88
2022/03/18 02:26:47;;;;;;;22.27;5.60;;;;;;;8.65;62.44;103377.66;4727691;29;120040;-88
2022/03/18 02:29:12;;;;;;;21.20;5.22;;;;;;;8.15;62.60;103305.06;4721586;29;120263;-88
2022/03/18 02:31:39;;;;;;;25.45;5.28;;;;;;;8.30;61.90;103339.66;4713429;29;122287;-87
2022/03/18 02:34:05;;;;;;;21.67;6.10;;;;;;;8.44;62.14;103364.47;4726355;29;122635;-88
2022/03/18 02:36:30;;;;;;;23.60;6.07;;;;;;;8.52;61.36;103382.59;4728236;29;119752;-87
2022/03/18 02:38:56;;;;;;;20.63;6.43;;;;;;;8.48;61.48;103389.94;4724597;29;121933;-88
2022/03/18 02:41:21;;;;;;;23.15;5.38;;;;;;;8.23;61.30;103351.25;4728697;29;122668;-88
2022/03/18 02:43:47;;;;;;;23.77;5.82;;;;;;;8.45;61.43;103398.09;4744142;29;119834;-88
2022/03/18 02:46:15;;;;;;;25.58;6.38;;;;;;;8.41;61.33;103394.53;4723830;29;122162;-88
2022/03/18 02:48:44;;;;;;;27.35;6.32;;;;;;;8.10;61.91;103347.19;4702315;29;119907;-87
2022/03/18 02:51:38;;;;;;;;;;;;;;;;;;;;;
2022/03/18 02:54:18;;;;;;;;;;;;;;;;;;;;;
2022/03/18 02:56:47;;;;;;;23.88;6.05;;;;;;;8.00;61.40;103353.25;4725440;29;120201;-87
2022/03/18 02:59:12;;;;;;;23.98;6.57;;;;;;;8.06;61.54;103365.47;4716727;29;121934;-88
2022/03/18 03:01:40;;;;;;;27.50;6.45;;;;;;;8.30;61.62;103416.22;4728136;29;122920;-89
2022/03/18 03:04:14;;;;;;;24.63;6.60;;;;;;;8.01;61.20;103384.91;4728220;29;119786;-88
2022/03/18 03:09:27;;;;;;;19.63;6.88;;;;;;;8.22;62.06;103430.94;4731493;29;124035;-88
2022/03/18 03:11:53;;;;;;;29.08;7.30;;;;;;;8.11;61.63;103408.91;4700198;29;121370;-88
2022/03/18 03:14:19;;;;;;;23.83;7.38;;;;;;;7.87;61.48;103388.22;4726303;29;123249;-88
2022/03/18 03:16:47;;;;;;;20.45;6.43;;;;;;;8.10;61.75;103436.63;4728232;29;119601;-88
2022/03/18 03:19:14;;;;;;;22.75;6.43;;;;;;;8.02;62.01;103417.34;4713174;29;122771;-88
2022/03/18 03:21:40;;;;;;;22.42;7.28;;;;;;;7.95;61.87;103424.63;4742840;29;120116;-88
2022/03/18 03:24:06;;;;;;;23.15;6.97;;;;;;;7.65;61.97;103381.59;4713970;29;119675;-88
2022/03/18 03:26:35;;;;;;;26.77;7.47;;;;;;;7.73;62.15;103409.81;4705988;29;122377;-88
2022/03/18 03:29:00;;;;;;;31.05;7.45;;;;;;;7.64;61.92;103393.69;4724438;29;123263;-89
2022/03/18 03:31:26;;;;;;;21.50;7.68;;;;;;;7.93;62.10;103446.09;4729989;29;119656;-88
2022/03/18 03:33:52;;;;;;;23.27;7.05;;;;;;;7.59;61.83;103412.31;4727419;29;120122;-88
2022/03/18 03:36:18;;;;;;;19.77;6.30;;;;;;;7.68;61.96;103426.53;4725345;29;120873;-87
2022/03/18 03:38:47;;;;;;;23.88;6.38;;;;;;;7.42;62.36;103375.34;4744151;29;119430;-88
2022/03/18 03:41:15;;;;;;;17.50;6.43;;;;;;;7.79;62.27;103445.84;4727515;29;122486;-88
2022/03/18 03:43:51;;;;;;;;;;;;;;;;;;;;;
2022/03/18 03:46:17;;;;;;;25.27;6.28;;;;;;;7.94;61.44;103475.78;4723696;29;121445;-87
2022/03/18 03:48:43;;;;;;;21.30;6.55;;;;;;;7.58;60.92;103421.69;4742381;29;122855;-88
2022/03/18 03:51:09;;;;;;;24.02;6.90;;;;;;;7.61;61.77;103423.69;4732347;29;119848;-88
2022/03/18 03:53:36;;;;;;;25.17;7.38;;;;;;;7.49;61.51;103426.56;4745969;29;120164;-88
2022/03/18 03:56:04;;;;;;;22.05;7.38;;;;;;;7.64;61.57;103459.25;4730565;29;119849;-88
2022/03/18 03:58:33;;;;;;;24.40;7.65;;;;;;;7.52;61.81;103434.03;4731489;29;119881;-88
2022/03/18 04:01:01;;;;;;;25.27;7.70;;;;;;;7.53;62.01;103436.41;4724430;29;122919;-88
2022/03/18 04:03:29;;;;;;;18.52;7.57;;;;;;;7.50;62.07;103430.88;4729895;29;120064;-88
2022/03/18 04:05:54;;;;;;;23.10;9.18;;;;;;;7.82;61.82;103491.59;4731223;29;120059;-88
2022/03/18 04:08:24;;;;;;;18.98;8.27;;;;;;;7.61;61.85;103459.19;4703998;29;123099;-87
2022/03/18 04:10:54;;;;;;;11.95;6.82;;;;;;;7.82;61.93;103506.03;4729692;29;119756;-88
2022/03/18 04:13:20;;;;;;;12.63;7.30;;;;;;;7.43;61.83;103455.31;4750487;29;119650;-88
2022/03/18 04:15:48;;;;;;;12.18;6.57;;;;;;;7.47;61.64;103469.84;4716430;29;120472;-86
2022/03/18 04:18:14;;;;;;;13.98;7.45;;;;;;;7.62;61.64;103490.81;4716168;29;122376;-88
2022/03/18 04:20:40;;;;;;;11.52;6.90;;;;;;;7.76;61.82;103512.94;4730154;29;120069;-88
2022/03/18 04:23:05;;;;;;;10.77;6.70;;;;;;;7.61;62.01;103492.78;4745683;29;120023;-87
2022/03/18 04:25:31;;;;;;;11.38;7.30;;;;;;;7.81;61.75;103525.53;4727497;29;122841;-88
2022/03/18 04:27:58;;;;;;;12.77;7.60;;;;;;;7.74;61.76;103522.66;4746754;29;120036;-87
2022/03/18 04:30:23;;;;;;;18.63;8.30;;;;;;;7.62;61.91;103509.94;4746894;29;119335;-88
2022/03/18 04:32:49;;;;;;;18.40;8.93;;;;;;;7.70;62.11;103528.06;4746122;29;119558;-88
2022/03/18 04:35:14;;;;;;;15.55;8.77;;;;;;;7.91;62.77;103557.72;4721969;29;123934;-88
2022/03/18 04:37:42;;;;;;;18.85;8.75;;;;;;;7.88;62.77;103559.25;4730692;29;122431;-88
2022/03/18 04:40:11;;;;;;;24.77;9.48;;;;;;;7.85;62.22;103557.25;4710729;29;122905;-87
2022/03/18 04:42:37;;;;;;;29.33;9.02;;;;;;;7.85;62.27;103557.25;4730120;29;119492;-88
2022/03/18 04:45:04;;;;;;;16.33;8.20;;;;;;;7.61;62.25;103530.22;4715747;29;122118;-87
2022/03/18 04:47:30;;;;;;;12.25;8.05;;;;;;;7.43;62.42;103505.28;4729775;29;122861;-88
2022/03/18 04:50:02;;;;;;;16.00;8.73;;;;;;;7.84;62.22;103574.78;4730785;29;119824;-88
2022/03/18 04:52:28;;;;;;;21.90;9.18;;;;;;;7.53;62.42;103526.53;4730632;29;121662;-87
2022/03/18 04:54:54;;;;;;;15.95;10.70;;;;;;;7.54;62.90;103527.34;4716576;29;122847;-87
2022/03/18 04:57:22;;;;;;;21.40;9.70;;;;;;;7.33;62.40;103506.66;4733479;29;120204;-87
2022/03/18 04:59:57;;;;;;;17.50;9.30;;;;;;;7.71;63.09;103565.16;4716228;29;122285;-89
2022/03/18 05:02:24;;;;;;;19.40;9.05;;;;;;;7.81;62.89;103580.97;4715142;29;119430;-88
2022/03/18 05:04:57;;;;;;;;;;;;;;;7.84;62.89;103591.19;4715528;29;121708;-87
2022/03/18 05:07:25;;;;;;;18.20;9.60;;;;;;;7.64;62.82;103559.56;4715142;29;122955;-88
2022/03/18 05:09:53;;;;;;;23.77;13.75;;;;;;;7.55;62.88;103543.34;4735004;29;119418;-88
2022/03/18 05:12:31;;;;;;;28.92;10.15;;;;;;;7.33;62.35;103506.66;4730398;29;121586;-88
2022/03/18 05:15:04;;;;;;;23.45;9.95;;;;;;;7.60;62.67;103554.03;4713127;29;123300;-88
2022/03/18 05:17:31;;;;;;;;;;;;;;;7.82;63.20;103596.22;4742921;29;119421;-87
2022/03/18 05:20:00;;;;;;;22.60;9.73;;;;;;;7.36;62.95;103524.25;4743219;29;119354;-89
2022/03/18 05:22:32;;;;;;;21.35;8.57;;;;;;;7.37;62.81;103528.56;4742425;29;119972;-88
2022/03/18 05:25:06;;;;;;;21.92;9.55;;;;;;;7.68;62.96;103583.06;4727523;29;122587;-88
2022/03/18 05:27:48;;;;;;;;;;;;;;;;;;;;;
2022/03/18 05:30:37;;;;;;;16.60;8.30;;;;;;;7.69;62.97;103578.38;4729210;29;119990;-88
2022/03/18 05:33:05;;;;;;;22.63;9.02;;;;;;;7.90;62.37;103617.06;4729925;29;121714;-89
2022/03/18 05:35:31;;;;;;;19.30;9.90;;;;;;;7.81;62.45;103597.38;4727801;29;123072;-88
2022/03/18 05:37:57;;;;;;;15.55;8.95;;;;;;;7.68;62.42;103579.53;4714768;29;119707;-88
2022/03/18 05:40:22;;;;;;;21.65;9.20;;;;;;;7.51;62.21;103553.44;4708848;29;122504;-88
2022/03/18 05:42:48;;;;;;;19.20;8.48;;;;;;;7.50;61.95;103560.03;4747975;29;120141;-88
2022/03/18 05:45:14;;;;;;;22.05;8.98;;;;;;;7.54;62.29;103573.78;4729174;29;122048;-89
2022/03/18 05:47:43;;;;;;;15.35;9.02;;;;;;;7.31;62.28;103551.81;4714548;29;123363;-88
2022/03/18 05:50:15;;;;;;;18.58;8.88;;;;;;;7.33;62.19;103555.81;4729630;29;119618;-88
2022/03/18 05:53:01;;;;;;;13.13;8.82;;;;;;;7.65;62.56;103604.84;4745718;29;120177;-88
2022/03/18 05:58:19;;;;;;;12.65;8.02;;;;;;;7.92;62.46;103644.06;4744883;29;119397;-89
2022/03/18 06:00:48;;;;;;;9.65;7.30;;;;;;;7.67;62.18;103614.28;4729226;29;119711;-89
2022/03/18 06:03:14;;;;;;;13.35;8.00;;;;;;;7.77;61.96;103631.22;4747998;29;123449;-88
2022/03/18 06:05:42;;;;;;;11.43;8.18;;;;;;;7.51;62.15;103590.88;4714537;29;122197;-89
2022/03/18 06:13:38;;;;;;;;;;;;;;;7.84;61.12;103677.88;4717489;29;122080;-88
2022/03/18 06:16:06;;;;;;;9.93;8.07;;;;;;;7.76;61.66;103676.09;4713509;29;122944;-88
2022/03/18 06:18:37;;;;;;;11.85;8.90;;;;;;;7.40;61.61;103617.97;4728476;29;120000;-88
2022/03/18 06:21:06;;;;;;;10.77;8.05;;;;;;;7.45;61.82;103622.38;4729278;29;121903;-88
2022/03/18 06:23:35;;;;;;;9.50;8.35;;;;;;;7.55;61.73;103654.56;4731662;29;119947;-88
2022/03/18 06:26:10;;;;;;;10.02;8.52;;;;;;;7.75;61.84;103683.50;4748544;29;121075;-88
2022/03/18 06:28:36;;;;;;;10.05;8.07;;;;;;;7.90;61.74;103703.75;4728361;29;122778;-88
2022/03/18 06:31:06;;;;;;;11.50;8.30;;;;;;;7.44;61.79;103618.84;4713905;29;119728;-89
2022/03/18 06:33:43;;;;;;;9.15;8.23;;;;;;;7.52;62.15;103633.44;4744282;29;120389;-89
2022/03/18 06:36:11;;;;;;;13.52;8.32;;;;;;;7.78;62.18;103669.13;4727678;29;122958;-88
2022/03/18 06:38:40;;;;;;;11.77;8.40;;;;;;;7.77;62.61;103653.88;4697870;29;119773;-87
2022/03/18 06:41:06;;;;;;;13.85;9.00;;;;;;;7.74;63.21;103645.63;4741978;29;122236;-88
2022/03/18 06:43:43;;;;;;;9.02;8.00;;;;;;;8.06;62.77;103690.81;4744898;29;120121;-88
2022/03/18 06:46:11;;;;;;;10.68;8.45;;;;;;;8.07;63.16;103684.22;4728663;29;119729;-88
2022/03/18 06:48:40;;;;;;;12.30;9.35;;;;;;;8.28;63.10;103713.91;4732439;29;120271;-89
2022/03/18 06:51:06;;;;;;;10.98;9.20;;;;;;;8.27;63.53;103696.69;4743747;29;119931;-88
2022/03/18 06:53:32;;;;;;;12.80;10.20;;;;;;;8.44;63.51;103700.19;4714210;29;121896;-88
2022/03/18 06:55:57;;;;;;;10.07;9.05;;;;;;;8.18;63.16;103637.91;4712994;29;123162;-88
2022/03/18 06:58:23;;;;;;;10.93;9.73;;;;;;;8.36;63.93;103676.59;4743497;29;119998;-88
2022/03/18 07:00:51;;;;;;;12.10;9.32;;;;;;;8.24;63.17;103658.34;4714229;29;121849;-89
2022/03/18 07:03:24;;;;;;;14.43;10.80;;;;;;;8.35;63.43;103664.84;4698975;29;122869;-87
2022/03/18 07:05:50;;;;;;;16.48;11.15;;;;;;;8.47;63.47;103669.34;4724608;29;119818;-88
2022/03/18 07:08:21;;;;;;;20.20;12.38;;;;;;;8.64;63.11;103687.25;4713246;29;122234;-88
2022/03/18 07:10:49;;;;;;;21.92;13.05;;;;;;;8.68;63.64;103696.31;4748385;29;120266;-88
2022/03/18 07:13:17;;;;;;;23.08;13.63;;;;;;;8.73;63.61;103705.00;4714160;29;121648;-87
2022/03/18 07:15:46;;;;;;;20.45;12.50;;;;;;;8.85;64.10;103725.97;4712478;29;123790;-88
2022/03/18 07:18:14;;;;;;;20.63;12.90;;;;;;;9.19;64.27;103771.53;4723287;29;119510;-88
2022/03/18 07:20:40;;;;;;;21.88;12.98;;;;;;;8.98;64.45;103730.09;4713971;29;121715;-88
2022/03/18 07:23:19;;;;;;;22.30;13.02;;;;;;;9.43;65.08;103783.28;4718226;29;122734;-87
2022/03/18 07:25:48;;;;;;;23.20;14.20;;;;;;;9.44;65.39;103782.91;4723908;29;120300;-88
2022/03/18 07:28:18;;;;;;;29.08;14.95;;;;;;;9.10;65.03;103709.97;4737357;29;119824;-88
2022/03/18 07:30:46;;;;;;;27.95;15.45;;;;;;;9.42;65.78;103743.34;4727948;29;122407;-87
2022/03/18 07:33:12;;;;;;;42.35;23.80;;;;;;;9.34;65.77;103719.72;4731977;29;119935;-87
2022/03/18 07:35:38;;;;;;;25.58;15.88;;;;;;;9.47;65.69;103715.63;4741629;29;120357;-87
2022/03/18 07:38:09;;;;;;;26.42;15.40;;;;;;;9.86;66.35;103757.31;4728014;29;119616;-87
2022/03/18 07:40:37;;;;;;;31.17;15.48;;;;;;;9.96;66.04;103762.16;4721294;29;122054;-87
2022/03/18 07:43:10;;;;;;;30.63;15.85;;;;;;;10.09;65.94;103777.22;4724176;29;123017;-88
2022/03/18 07:45:39;;;;;;;31.48;15.38;;;;;;;10.39;66.25;103806.63;4722585;29;119787;-87
2022/03/18 07:48:07;;;;;;;30.30;15.45;;;;;;;10.20;66.26;103752.69;4727522;29;121821;-87
2022/03/18 07:50:35;;;;;;;41.35;11.63;;;;;;;10.28;66.66;103748.09;4727640;29;120103;-87
2022/03/18 07:53:07;;;;;;;34.83;10.00;;;;;;;10.43;67.17;103758.88;4742875;29;119874;-87
2022/03/18 07:55:35;;;;;;;35.67;10.10;;;;;;;10.89;67.22;103809.97;4722046;29;122167;-87
2022/03/18 07:58:01;;;;;;;40.10;9.95;;;;;;;11.07;66.83;103822.69;4710510;29;121733;-87
2022/03/18 08:00:32;;;;;;;40.85;10.13;;;;;;;11.25;66.53;103828.38;4742497;29;120368;-87
2022/03/18 08:03:05;;;;;;;49.28;9.88;;;;;;;10.88;66.62;103756.97;4727448;29;122856;-87
2022/03/18 08:05:33;;;;;;;36.45;10.15;;;;;;;11.17;66.37;103784.72;4706464;29;119929;-86
2022/03/18 08:07:59;;;;;;;44.17;10.15;;;;;;;11.61;66.20;103839.69;4711901;29;122362;-87
2022/03/18 08:10:24;;;;;;;44.08;10.80;;;;;;;11.43;65.92;103805.75;4703685;29;123139;-87
2022/03/18 08:12:53;;;;;;;34.80;9.65;;;;;;;11.58;65.50;103819.22;4712732;29;119499;-87
2022/03/18 08:15:24;;;;;;;37.20;9.55;;;;;;;11.66;65.45;103809.09;4734401;29;122095;-86
2022/03/18 08:17:52;;;;;;;37.20;9.32;;;;;;;11.76;64.89;103818.56;4727084;29;119701;-86
2022/03/18 08:20:21;;;;;;;37.80;9.05;;;;;;;11.97;64.59;103832.50;4727292;29;122147;-86
2022/03/18 08:22:52;;;;;;;39.33;10.43;;;;;;;11.84;64.81;103806.50;4727176;29;120184;-87
2022/03/18 08:25:19;;;;;;;34.97;9.60;;;;;;;12.23;64.56;103861.75;4699049;29;119949;-86
2022/03/18 08:27:48;;;;;;;31.30;9.07;;;;;;;12.23;63.85;103861.75;4742583;29;119778;-86
2022/03/18 08:30:17;;;;;;;37.53;10.57;;;;;;;12.22;64.01;103863.72;4740304;29;123717;-86
2022/03/18 08:32:46;;;;;;;33.35;10.80;;;;;;;12.29;64.66;103865.69;4712252;29;119686;-86
2022/03/18 08:35:11;;;;;;;34.90;9.40;;;;;;;12.56;64.14;103896.56;4697204;29;122277;-87
2022/03/18 08:40:38;;;;;;;31.13;8.80;;;;;;;12.47;63.65;103877.59;4720041;29;121826;-86
2022/03/18 08:43:06;;;;;;;35.20;9.68;;;;;;;12.16;64.11;103817.69;4735751;29;120279;-86
2022/03/18 08:45:33;;;;;;;29.08;8.68;;;;;;;12.81;63.66;103913.97;4727053;29;119640;-86
2022/03/18 08:48:02;;;;;;;31.05;8.77;;;;;;;12.26;63.66;103820.47;4714911;29;122142;-86
2022/03/18 08:50:28;;;;;;;32.03;8.43;;;;;;;12.69;63.58;103884.00;4727706;29;123470;-87
2022/03/18 08:52:57;;;;;;;32.42;8.80;;;;;;;12.65;63.83;103883.19;4742149;29;120383;-85
2022/03/18 08:55:26;;;;;;;33.28;8.15;;;;;;;12.81;63.40;103893.91;4744220;29;122219;-86
2022/03/18 08:57:54;;;;;;;38.85;8.23;;;;;;;13.06;63.19;103921.53;4745830;29;119942;-86
2022/03/18 09:00:23;;;;;;;33.15;7.88;;;;;;;12.91;63.17;103884.88;4721069;29;119798;-86
2022/03/18 09:02:51;;;;;;;34.47;8.63;;;;;;;12.72;62.91;103852.94;4741124;29;121456;-86
2022/03/18 09:05:19;;;;;;;34.55;8.55;;;;;;;12.93;62.98;103881.72;4730646;29;120459;-86
2022/03/18 09:07:48;;;;;;;29.15;8.07;;;;;;;13.33;63.08;103936.63;4704720;29;121895;-86
2022/03/18 09:10:31;;;;;;;41.42;8.73;;;;;;;13.21;63.14;103903.88;4729328;29;120512;-87
2022/03/18 09:13:01;;;;;;;34.42;8.25;;;;;;;13.01;62.60;103866.78;4712856;29;119704;-87
2022/03/18 09:15:30;;;;;;;30.85;8.02;;;;;;;13.14;62.33;103879.81;4726168;29;121614;-87
2022/03/18 09:17:57;;;;;;;33.25;8.02;;;;;;;13.15;61.75;103878.63;4711691;29;122513;-87
2022/03/18 09:20:34;;;;;;;34.53;7.82;;;;;;;13.18;62.30;103879.84;4725591;29;120595;-87
2022/03/18 09:23:08;;;;;;;31.63;8.20;;;;;;;13.60;62.65;103936.25;4745177;29;121097;-87
2022/03/18 09:25:35;;;;;;;35.03;7.97;;;;;;;13.49;62.49;103914.97;4723156;29;122456;-87
2022/03/18 09:28:03;;;;;;;35.53;7.78;;;;;;;13.31;61.91;103886.59;4729332;29;122168;-87
2022/03/18 09:30:29;;;;;;;30.25;7.82;;;;;;;13.28;61.60;103870.81;4727131;29;123027;-87
2022/03/18 09:32:55;;;;;;;33.03;7.50;;;;;;;13.57;61.58;103914.97;4714068;29;120315;-87
2022/03/18 09:35:21;;;;;;;31.13;7.07;;;;;;;13.52;61.09;103902.38;4723016;29;122862;-86
2022/03/18 09:37:49;;;;;;;29.25;7.97;;;;;;;13.62;61.27;103917.34;4710371;29;123128;-87
2022/03/18 09:40:23;;;;;;;31.95;8.18;;;;;;;13.55;61.37;103896.06;4724173;29;120189;-87
2022/03/18 09:43:14;;;;;;;34.42;8.02;;;;;;;13.47;60.73;103875.16;4745510;29;119532;-87
2022/03/18 09:45:40;;;;;;;30.52;7.88;;;;;;;13.70;60.99;103913.41;4733015;29;123015;-87
2022/03/18 09:48:11;;;;;;;29.85;7.88;;;;;;;14.18;61.38;103965.44;4722381;29;121539;-85
2022/03/18 09:50:40;;;;;;;29.90;7.43;;;;;;;14.07;60.89;103940.59;4713531;29;123072;-86
2022/03/18 09:53:09;;;;;;;33.13;6.68;;;;;;;13.98;59.69;103920.91;4728462;29;119531;-86
2022/03/18 09:55:38;;;;;;;32.05;6.68;;;;;;;14.32;59.40;103963.44;4713081;29;122313;-86
2022/03/18 09:58:04;;;;;;;32.03;7.15;;;;;;;14.37;58.99;103971.31;4720872;29;123369;-86
2022/03/18 10:00:30;;;;;;;33.00;6.88;;;;;;;14.33;58.61;103956.75;4728136;29;120305;-86
2022/03/18 10:03:16;;;;;;;33.80;7.57;;;;;;;14.41;58.97;103974.88;4745387;29;120458;-86
2022/03/18 10:05:59;;;;;;;30.02;7.22;;;;;;;14.31;59.80;103952.81;4711099;29;123096;-86
2022/03/18 10:08:45;;;;;;;33.50;7.18;;;;;;;14.51;59.51;103973.31;4753214;29;119653;-86
2022/03/18 10:11:45;;;;;;;36.38;7.10;;;;;;;14.61;58.93;103982.75;4727623;29;123258;-86
2022/03/18 10:14:20;;;;;;;27.30;6.28;;;;;;;14.19;58.60;103900.75;4705060;29;120472;-86
2022/03/18 10:16:54;;;;;;;27.38;6.10;;;;;;;14.34;58.52;103933.47;4740645;29;120409;-86
2022/03/18 10:19:21;;;;;;;31.88;6.45;;;;;;;14.70;59.12;103983.16;4743269;29;120311;-87
2022/03/18 10:21:50;;;;;;;30.08;6.13;;;;;;;14.82;57.36;103996.50;4712927;29;119797;-87
2022/03/18 10:24:16;;;;;;;29.90;5.68;;;;;;;14.63;56.98;103961.81;4710708;29;122369;-87
2022/03/18 10:26:42;;;;;;;29.10;5.30;;;;;;;14.72;56.77;103970.50;4741635;29;120540;-87
2022/03/18 10:29:14;;;;;;;28.25;5.68;;;;;;;14.90;56.28;104005.56;4744859;29;119999;-87
2022/03/18 10:32:08;;;;;;;24.55;4.63;;;;;;;14.43;55.67;103944.94;4726231;29;123228;-87
2022/03/18 10:37:50;;;;;;;22.23;5.47;;;;;;;14.97;55.37;104013.84;4735147;29;122251;-87
2022/03/18 10:40:34;;;;;;;20.05;5.18;;;;;;;15.00;56.04;104021.34;4727947;29;122826;-87
2022/03/18 10:43:02;;;;;;;25.63;5.60;;;;;;;14.98;54.72;104018.19;4741305;29;119770;-88
2022/03/18 10:45:29;;;;;;;23.88;5.22;;;;;;;14.94;54.11;104017.44;4705999;29;119792;-87
2022/03/18 10:48:15;;;;;;;21.88;4.75;;;;;;;15.05;54.50;104029.22;4704930;29;123152;-87
2022/03/18 10:50:41;;;;;;;20.05;5.15;;;;;;;15.09;54.13;104027.22;4723630;29;119894;-87
2022/03/18 10:53:10;;;;;;;26.23;5.32;;;;;;;14.98;53.52;104013.47;4731298;29;121871;-87
2022/03/18 10:55:39;;;;;;;25.92;5.32;;;;;;;15.16;54.15;104034.72;4725583;29;119929;-87
2022/03/18 10:58:16;;;;;;;26.48;5.90;;;;;;;15.21;54.84;104031.53;4698178;29;123367;-87
2022/03/18 11:00:44;;;;;;;32.50;5.88;;;;;;;15.05;54.24;104013.41;4728485;29;123718;-87
2022/03/18 11:03:11;;;;;;;21.17;5.22;;;;;;;15.20;54.79;104019.69;4742542;29;120226;-87
2022/03/18 11:05:44;;;;;;;16.95;4.43;;;;;;;15.23;53.65;104032.72;4728198;29;122244;-87
2022/03/18 11:08:11;;;;;;;23.63;5.80;;;;;;;15.17;52.94;104028.78;4717160;29;123390;-87
2022/03/18 11:13:35;;;;;;;26.65;5.10;;;;;;;15.28;54.30;104051.66;4727130;29;122547;-87
2022/03/18 11:16:10;;;;;;;26.02;5.30;;;;;;;15.20;52.81;104022.47;4703202;29;123461;-87
2022/03/18 11:18:37;;;;;;;26.02;5.50;;;;;;;15.29;52.98;104028.34;4725656;29;122369;-87
2022/03/18 11:21:03;;;;;;;22.50;5.03;;;;;;;15.45;53.72;104046.44;4742485;29;120582;-88
2022/03/18 11:23:30;;;;;;;22.35;4.90;;;;;;;15.55;53.54;104056.66;4737214;29;120599;-87
2022/03/18 11:26:00;;;;;;;20.67;5.18;;;;;;;15.15;53.29;103988.91;4740302;29;120024;-88
2022/03/18 11:28:26;;;;;;;25.23;5.00;;;;;;;15.39;52.74;104017.63;4724378;29;123381;-88
2022/03/18 11:31:03;;;;;;;20.90;4.88;;;;;;;15.73;53.89;104062.91;4739437;29;120177;-88
2022/03/18 11:33:29;;;;;;;23.67;4.57;;;;;;;15.78;54.84;104065.25;4711836;29;122399;-87
2022/03/18 11:35:54;;;;;;;20.48;5.45;;;;;;;15.93;55.24;104077.03;4725452;29;123707;-88
2022/03/18 11:38:30;;;;;;;20.20;4.07;;;;;;;16.01;53.68;104066.69;4729330;29;119873;-88
2022/03/18 11:41:02;;;;;;;21.98;5.00;;;;;;;16.07;52.90;104056.75;4740556;29;123169;-88
2022/03/18 11:43:29;;;;;;;32.35;9.77;;;;;;;15.90;52.47;104031.56;4755693;29;119956;-88
2022/03/18 11:46:17;;;;;;;21.13;5.10;;;;;;;16.15;52.33;104064.63;4727388;29;122031;-88
2022/03/18 11:48:54;;;;;;;27.50;5.45;;;;;;;16.14;50.32;104065.03;4710187;29;123311;-88
2022/03/18 11:51:29;;;;;;;21.00;4.65;;;;;;;16.19;50.31;104056.28;4737615;29;120187;-88
2022/03/18 11:54:05;;;;;;;19.70;4.60;;;;;;;16.25;51.91;104054.63;4708820;29;122247;-88
2022/03/18 11:56:44;;;;;;;23.77;4.97;;;;;;;16.34;51.09;104068.81;4714009;29;124036;-88
2022/03/18 11:59:25;;;;;;;18.88;4.22;;;;;;;16.45;52.05;104066.75;4724195;29;120025;-88